Freuchie, United Kingdom
Current Conditions -  °F | °C
As of 6:50 AM on Sunday 23 Nov 2014 (Local Time) from EGQL Reporting Station
Broken Clouds Broken Clouds  
Wind Chill: 38°   Ceiling: 17000
Heat Index: 41°   Visibility: 6mi
Dew Point: 39°   Wind: 5mph
Humidity: 93%   Direction: 270°W
Pressure: 29.97"   Gusts: NA
Location:  56.25°N, 3.16°W
Report Text: EGQL 230650Z 27004KT 9999 FEW040 BKN170 05/04 Q1015 BLU
Loading
Personal Weather Stations






























Interactive Weather Map New forecast layout! Learn more

10-Day Weather Forecast

Advertisements
Track Severe Weather on mobile